Data for 03/08/2008

Time Sea-Level Adjusted Pressure Absolute Pressure Temperature Relative Humidity Dew Point   
(mb) (inHg) (mb) (inHg) (C) (F) (%) (C) (F)
00:05 1018 30.06 847 25.01 1 33.8 59 -6.1 21
00:10 1018 30.06 847 25.01 1.3 34.4 58 -6 21.2
00:15 1018 30.06 847 25.01 1.5 34.7 57 -6.1 21
00:20 1018 30.06 847 25.01 1.5 34.7 57 -6.1 21
00:25 1018 30.06 847 25.01 1.3 34.3 57 -6.3 20.7
00:30 1018 30.06 847 25.01 0.9 33.6 58 -6.4 20.4
00:35 1018 30.06 847 25.01 0.8 33.4 58 -6.5 20.4
00:40 1018 30.06 847 25.01 0.3 32.5 60 -6.6 20.2
00:45 1018 30.06 847 25.01 -0.5 31.1 63 -6.7 19.9
00:50 1018 30.06 847 25.01 -1 30.3 64 -6.9 19.6
00:55 1018 30.06 847 25.01 -1.1 29.9 66 -6.8 19.8
01:00 1018 30.06 847 25.01 -1.3 29.6 67 -6.7 19.9
01:05 1018 30.06 847 25.01 -1.4 29.5 68 -6.6 20.1
01:10 1017 30.03 847 25.01 -1.2 29.8 68 -6.3 20.6
01:15 1017 30.03 847 25.01 -1 30.2 67 -6.3 20.6
01:20 1017 30.03 847 25.01 -1 30.2 67 -6.4 20.5
01:25 1017 30.03 846 24.98 -1.1 30 67 -6.4 20.4
01:30 1017 30.03 846 24.98 -1.2 29.8 68 -6.4 20.4
01:35 1017 30.03 846 24.98 -1.2 29.8 68 -6.5 20.4
01:40 1017 30.03 846 24.98 -1.4 29.5 68 -6.5 20.2
01:45 1017 30.03 846 24.98 -1.7 28.9 69 -6.8 19.8
01:50 1017 30.03 846 24.98 -2.1 28.3 69 -6.9 19.6
01:55 1017 30.03 846 24.98 -2.2 28.1 71 -6.8 19.8
02:00 1017 30.03 846 24.98 -1.6 29.1 69 -6.6 20
02:05 1017 30.03 846 24.98 -1.1 30 67 -6.5 20.4
02:10 1017 30.03 846 24.98 -0.8 30.5 66 -6.5 20.4
02:15 1017 30.03 846 24.98 -0.8 30.5 65 -6.6 20.1
02:20 1017 30.03 846 24.98 -1 30.2 65 -6.7 19.9
02:25 1017 30.03 846 24.98 -1.3 29.7 66 -6.9 19.6
02:30 1017 30.03 846 24.98 -1.8 28.7 67 -7.1 19.3
02:35 1017 30.03 846 24.98 -1.9 28.6 68 -7 19.4
02:40 1017 30.03 846 24.98 -1.7 29 68 -6.8 19.7
02:45 1017 30.03 846 24.98 -1.7 28.9 68 -6.9 19.6
02:50 1017 30.03 846 24.98 -2 28.5 69 -7 19.4
02:55 1017 30.03 846 24.98 -1.7 28.9 68 -6.9 19.6
03:00 1017 30.03 846 24.98 -1.6 29 68 -6.8 19.7
03:05 1017 30.03 846 24.98 -1.8 28.7 68 -7 19.4
03:10 1017 30.03 846 24.98 -1.4 29.5 66 -6.9 19.5
03:15 1017 30.03 846 24.98 -0.9 30.3 65 -6.7 19.9
03:20 1017 30.03 846 24.98 -0.7 30.8 64 -6.7 20
03:25 1017 30.03 846 24.98 -0.9 30.3 65 -6.7 20
03:30 1017 30.03 846 24.98 -1.7 28.9 67 -7 19.3
03:35 1017 30.03 846 24.98 -2.1 28.1 67 -7.4 18.7
03:40 1017 30.03 846 24.98 -2.1 28.3 67 -7.3 18.8
03:45 1017 30.03 846 24.98 -2.2 28 68 -7.4 18.7
03:50 1017 30.03 846 24.98 -2.4 27.8 69 -7.3 18.8
03:55 1017 30.03 846 24.98 -2.1 28.3 68 -7.1 19.2
04:00 1017 30.03 846 24.98 -1.9 28.6 67 -7.2 19
04:05 1017 30.03 846 24.98 -2.2 28 68 -7.3 18.9
04:10 1017 30.03 846 24.98 -2.4 27.7 69 -7.3 18.9
04:15 1017 30.03 846 24.98 -2.4 27.6 69 -7.3 18.9
04:20 1017 30.03 846 24.98 -2.8 27 70 -7.5 18.5
04:25 1017 30.03 846 24.98 -3.2 26.3 72 -7.6 18.3
04:30 1017 30.03 846 24.98 -3 26.5 72 -7.4 18.6
04:35 1017 30.03 846 24.98 -2.5 27.4 69 -7.5 18.6
04:40 1017 30.03 846 24.98 -2.4 27.7 68 -7.5 18.5
04:45 1017 30.03 846 24.98 -2.3 27.8 69 -7.3 18.9
04:50 1017 30.03 846 24.98 -2 28.5 67 -7.3 18.8
04:55 1017 30.03 846 24.98 -2 28.3 68 -7.3 18.9
05:00 1017 30.03 846 24.98 -2.3 27.9 67 -7.5 18.4
05:05 1017 30.03 846 24.98 -3.2 26.2 70 -7.9 17.8
05:10 1017 30.03 846 24.98 -3.3 26 73 -7.6 18.3
05:15 1017 30.03 846 24.98 -3.1 26.5 72 -7.5 18.6
05:20 1017 30.03 846 24.98 -3.4 26 71 -7.8 17.9
05:25 1017 30.03 846 24.98 -3.4 25.8 71 -8 17.6
05:30 1017 30.03 846 24.98 -3 26.6 69 -7.8 17.9
05:35 1017 30.03 846 24.98 -3 26.5 70 -7.8 18
05:40 1017 30.03 846 24.98 -3.2 26.2 72 -7.5 18.5
05:45 1017 30.03 846 24.98 -3.2 26.2 72 -7.6 18.4
05:50 1017 30.03 846 24.98 -3.2 26.3 70 -7.8 17.9
05:55 1017 30.03 846 24.98 -3.8 25.1 72 -8.2 17.3
06:00 1017 30.03 846 24.98 -4.3 24.2 74 -8.3 17
06:05 1017 30.03 846 24.98 -4.3 24.3 74 -8.3 17.1
06:10 1017 30.03 846 24.98 -4.3 24.3 74 -8.2 17.2
06:15 1017 30.03 846 24.98 -4.3 24.2 75 -8.2 17.3
06:20 1017 30.03 846 24.98 -4.2 24.4 74 -8.1 17.4
06:25 1017 30.03 846 24.98 -4.4 24.1 75 -8.3 17.1
06:30 1017 30.03 846 24.98 -4.5 23.9 75 -8.3 17.1
06:35 1017 30.03 846 24.98 -4.3 24.3 74 -8.3 17.1
06:40 1017 30.03 846 24.98 -4.6 23.7 75 -8.4 17
06:45 1017 30.03 846 24.98 -4.7 23.6 75 -8.4 16.9
06:50 1017 30.03 846 24.98 -4.6 23.7 75 -8.4 16.9
06:55 1017 30.03 846 24.98 -4.8 23.4 76 -8.5 16.8
07:00 1017 30.03 846 24.98 -4.9 23.1 76 -8.5 16.6
07:05 1017 30.03 846 24.98 -5 23.1 77 -8.4 16.8
07:10 1017 30.03 846 24.98 -4.4 24 76 -8.1 17.5
07:15 1017 30.03 846 24.98 -3.9 25 75 -7.7 18.1
07:20 1017 30.03 846 24.98 -3.6 25.5 74 -7.6 18.2
07:25 1017 30.03 846 24.98 -3.6 25.6 73 -7.7 18.2
07:30 1017 30.03 846 24.98 -3.5 25.6 73 -7.7 18.1
07:35 1017 30.03 846 24.98 -3.4 25.9 72 -7.7 18.1
07:40 1017 30.03 846 24.98 -3.3 26.1 72 -7.6 18.3
07:45 1017 30.03 846 24.98 -3 26.5 72 -7.5 18.6
07:50 1017 30.03 846 24.98 -2.8 27 71 -7.4 18.7
07:55 1017 30.03 846 24.98 -2.6 27.2 70 -7.3 18.8
08:00 1017 30.03 846 24.98 -2.5 27.5 70 -7.3 18.8
08:05 1017 30.03 847 25.01 -2.1 28.1 68 -7.2 19.1
08:10 1017 30.03 847 25.01 -1.7 29 67 -7 19.3
08:15 1017 30.03 847 25.01 -1.3 29.7 65 -7 19.5
08:20 1017 30.03 847 25.01 -0.9 30.3 64 -6.9 19.6
08:25 1017 30.03 847 25.01 -0.5 31 63 -6.8 19.7
08:30 1017 30.03 847 25.01 -0.3 31.5 62 -6.8 19.8
08:35 1017 30.03 847 25.01 -0.2 31.7 61 -6.7 19.9
08:40 1017 30.03 847 25.01 -0.1 31.8 60 -6.9 19.5
08:45 1017 30.03 847 25.01 0 32 60 -6.9 19.6
08:50 1017 30.03 847 25.01 0.3 32.5 58 -7 19.3
08:55 1017 30.03 847 25.01 0.4 32.7 58 -6.9 19.6
09:00 1018 30.06 847 25.01 0.8 33.4 57 -6.9 19.6
09:05 1018 30.06 847 25.01 0.3 32.6 57 -7.1 19.1
09:10 1017 30.03 847 25.01 0.2 32.3 59 -6.9 19.5
09:15 1018 30.06 847 25.01 0.4 32.7 57 -7 19.3
09:20 1018 30.06 847 25.01 1 33.8 56 -6.8 19.8
09:25 1018 30.06 847 25.01 1.8 35.2 53 -6.7 19.9
09:30 1018 30.06 847 25.01 1.7 35.1 54 -6.6 20.2
09:35 1018 30.06 847 25.01 1.9 35.4 52 -6.9 19.6
09:40 1018 30.06 847 25.01 1.5 34.6 54 -6.9 19.5
09:45 1018 30.06 847 25.01 1.6 34.9 54 -6.7 19.9
09:50 1018 30.06 847 25.01 1.9 35.4 53 -6.6 20.1
09:55 1018 30.06 847 25.01 2.2 36 52 -6.6 20.2
10:00 1018 30.06 847 25.01 2.4 36.4 51 -6.7 19.9
10:05 1018 30.06 847 25.01 2.3 36.2 52 -6.5 20.3
10:10 1018 30.06 847 25.01 2.5 36.6 51 -6.6 20.2
10:15 1018 30.06 847 25.01 3 37.4 51 -6.3 20.7
10:20 1018 30.06 847 25.01 3.9 39 47 -6.3 20.6
10:25 1018 30.06 847 25.01 4.3 39.8 45 -6.6 20.2
10:30 1018 30.06 847 25.01 3.7 38.7 47 -6.7 20
10:35 1018 30.06 847 25.01 3.6 38.4 47 -6.8 19.8
10:40 1018 30.06 847 25.01 3.8 38.9 47 -6.4 20.4
10:45 1018 30.06 847 25.01 4.3 39.8 46 -6.3 20.7
10:50 1018 30.06 847 25.01 4.7 40.4 46 -6 21.1
10:55 1018 30.06 847 25.01 4.5 40.1 47 -5.9 21.4
11:00 1018 30.06 847 25.01 4.8 40.6 47 -5.6 21.9
11:05 1018 30.06 847 25.01 5.4 41.7 46 -5.4 22.2
11:10 1018 30.06 847 25.01 5.3 41.5 45 -5.6 21.9
11:15 1018 30.06 847 25.01 4.8 40.7 45 -6.1 21.1
11:20 1018 30.06 847 25.01 5.2 41.3 43 -6.3 20.7
11:25 1018 30.06 847 25.01 5.4 41.7 42 -6.5 20.4
11:30 1018 30.06 847 25.01 5.7 42.3 41 -6.4 20.5
11:35 1018 30.06 847 25.01 5.1 41.2 44 -6.3 20.7
11:40 1018 30.06 847 25.01 5.2 41.4 43 -6.3 20.7
11:45 1018 30.06 847 25.01 5.3 41.5 44 -6.1 21
11:50 1018 30.06 847 25.01 5 40.9 45 -5.9 21.3
11:55 1018 30.06 847 25.01 5.3 41.5 44 -5.9 21.3
12:00 1018 30.06 847 25.01 5.8 42.5 44 -5.6 21.8
12:05 1018 30.06 847 25.01 6.2 43.1 43 -5.5 22.1
12:10 1018 30.06 847 25.01 6.5 43.7 39 -6.3 20.6
12:15 1018 30.06 847 25.01 6.8 44.3 38 -6.5 20.4
12:20 1018 30.06 847 25.01 7 44.7 37 -6.6 20.2
12:25 1018 30.06 847 25.01 7 44.7 38 -6.4 20.4
12:30 1018 30.06 847 25.01 6.7 44.1 39 -6.3 20.7
12:35 1018 30.06 847 25.01 6.1 43 41 -6.2 20.9
12:40 1018 30.06 847 25.01 6.3 43.3 42 -5.8 21.6
12:45 1018 30.06 847 25.01 6.4 43.5 41 -6 21.2
12:50 1018 30.06 847 25.01 7.1 44.7 36 -6.9 19.6
12:55 1018 30.06 847 25.01 7.5 45.5 36 -6.5 20.3
13:00 1018 30.06 847 25.01 7.2 44.9 38 -6.3 20.6
13:05 1018 30.06 847 25.01 7.3 45.2 38 -6 21.2
13:10 1018 30.06 847 25.01 7.3 45.1 39 -5.9 21.4
13:15 1018 30.06 847 25.01 7.3 45.2 37 -6.3 20.7
13:20 1018 30.06 847 25.01 7.1 44.7 37 -6.8 19.8
13:25 1018 30.06 847 25.01 5.5 41.9 41 -6.9 19.6
13:30 1018 30.06 847 25.01 6.4 43.5 39 -6.7 20
13:35 1018 30.06 847 25.01 7.1 44.7 39 -6 21.1
13:40 1018 30.06 847 25.01 7.4 45.4 36 -6.5 20.3
13:45 1018 30.06 847 25.01 6.3 43.3 41 -6.1 21
13:50 1018 30.06 847 25.01 6.2 43.2 41 -6.1 21
13:55 1018 30.06 847 25.01 6.8 44.3 38 -6.4 20.6
14:00 1018 30.06 847 25.01 6.6 43.8 39 -6.3 20.7
14:05 1018 30.06 847 25.01 7.1 44.8 40 -5.7 21.8
14:10 1018 30.06 847 25.01 7.7 45.9 35 -6.8 19.8
14:15 1018 30.06 847 25.01 6.9 44.5 40 -5.6 21.9
14:20 1018 30.06 847 25.01 7.1 44.8 39 -6 21.3
14:25 1018 30.06 847 25.01 7.1 44.8 39 -6 21.3
14:30 1018 30.06 847 25.01 7.7 45.8 37 -6.2 20.8
14:35 1018 30.06 847 25.01 8.1 46.5 36 -6.1 21
14:40 1018 30.06 847 25.01 8 46.3 39 -5.3 22.5
14:45 1018 30.06 847 25.01 7.5 45.4 37 -6.2 20.8
14:50 1018 30.06 847 25.01 7.2 44.9 37 -6.7 20
14:55 1018 30.06 847 25.01 6.7 44.1 38 -6.6 20.2
15:00 1018 30.06 847 25.01 7.3 45.2 36 -6.9 19.7
15:05 1018 30.06 847 25.01 7.7 45.8 35 -6.8 19.7
15:10 1018 30.06 847 25.01 8.2 46.8 34 -6.7 19.9
15:15 1018 30.06 847 25.01 7.3 45.2 36 -6.6 20.1
15:20 1018 30.06 847 25.01 6.3 43.4 40 -6.4 20.5
15:25 1018 30.06 847 25.01 6.9 44.4 37 -6.7 20
15:30 1018 30.06 847 25.01 6.6 44 38 -6.5 20.3
15:35 1018 30.06 847 25.01 6.1 43 39 -6.8 19.8
15:40 1018 30.06 847 25.01 6.2 43.1 39 -6.7 19.9
15:45 1018 30.06 847 25.01 6.2 43.1 39 -6.9 19.6
15:50 1018 30.06 847 25.01 6.6 43.8 37 -7 19.3
15:55 1018 30.06 847 25.01 6.9 44.5 36 -7.1 19.3
16:00 1018 30.06 847 25.01 6.3 43.3 38 -7.1 19.3
16:05 1018 30.06 847 25.01 5.8 42.5 40 -6.9 19.7
16:10 1018 30.06 847 25.01 5.5 41.8 41 -6.8 19.8
16:15 1018 30.06 847 25.01 5.8 42.5 42 -6.2 20.8
16:20 1018 30.06 847 25.01 6.3 43.4 40 -6.1 21
16:25 1018 30.06 847 25.01 6.6 43.9 39 -6.2 20.8
16:30 1018 30.06 847 25.01 6.5 43.7 39 -6.3 20.6
16:35 1018 30.06 847 25.01 6.4 43.4 40 -6.1 20.9
16:40 1018 30.06 847 25.01 6.4 43.6 40 -6.1 21
16:45 1018 30.06 847 25.01 6.5 43.7 41 -6 21.3
16:50 1018 30.06 847 25.01 6.5 43.8 41 -5.7 21.7
16:55 1018 30.06 847 25.01 6.6 43.8 41 -5.6 21.9
17:00 1018 30.06 847 25.01 6.6 43.8 41 -5.7 21.7
17:05 1018 30.06 847 25.01 6.5 43.8 42 -5.6 21.9
17:10 1018 30.06 847 25.01 6.6 43.8 41 -5.6 21.8
17:15 1018 30.06 847 25.01 6.4 43.6 41 -5.7 21.7
17:20 1018 30.06 847 25.01 6.3 43.3 42 -5.7 21.8
17:25 1018 30.06 847 25.01 6.4 43.5 42 -5.6 22
17:30 1018 30.06 847 25.01 6.4 43.5 42 -5.5 22.1
17:35 1018 30.06 847 25.01 6.4 43.6 42 -5.5 22.2
17:40 1018 30.06 847 25.01 6.4 43.5 43 -5.3 22.4
17:45 1018 30.06 847 25.01 6.3 43.3 43 -5.4 22.3
17:50 1018 30.06 847 25.01 6.2 43.1 43 -5.5 22.1
17:55 1018 30.06 847 25.01 6 42.9 43 -5.5 22.1
18:00 1018 30.06 847 25.01 5.9 42.7 44 -5.5 22.2
18:05 1018 30.06 847 25.01 5.8 42.4 44 -5.4 22.3
18:10 1018 30.06 847 25.01 5.8 42.4 45 -5.3 22.5
18:15 1018 30.06 848 25.04 5.7 42.3 45 -5.2 22.6
18:20 1018 30.06 848 25.04 5.7 42.2 46 -5.1 22.7
18:25 1018 30.06 848 25.04 5.6 42.1 46 -5.1 22.9
18:30 1018 30.06 848 25.04 5.5 41.8 47 -5.1 22.9
18:35 1018 30.06 848 25.04 5.5 41.8 46 -5.1 22.8
18:40 1018 30.06 848 25.04 5.5 41.8 47 -5 23
18:45 1019 30.09 848 25.04 5.4 41.7 48 -4.8 23.3
18:50 1019 30.09 848 25.04 5.4 41.7 48 -4.8 23.4
18:55 1019 30.09 848 25.04 5.3 41.5 48 -4.8 23.4
19:00 1019 30.09 848 25.04 5.1 41.3 50 -4.4 24.1
19:05 1019 30.09 848 25.04 4.7 40.5 53 -4 24.8
19:10 1019 30.09 848 25.04 4.3 39.8 56 -3.8 25.2
19:15 1019 30.09 848 25.04 4.2 39.6 57 -3.6 25.4
19:20 1019 30.09 848 25.04 4.2 39.5 57 -3.5 25.8
19:25 1019 30.09 848 25.04 4 39.2 59 -3.3 26
19:30 1019 30.09 848 25.04 3.9 39 60 -3.3 26.1
19:35 1019 30.09 848 25.04 3.8 38.8 61 -3.1 26.4
19:40 1019 30.09 848 25.04 3.7 38.7 61 -3.1 26.4
19:45 1019 30.09 848 25.04 3.7 38.7 61 -3.1 26.5
19:50 1019 30.09 848 25.04 3.7 38.7 62 -2.9 26.7
19:55 1019 30.09 848 25.04 3.6 38.4 63 -2.9 26.8
20:00 1019 30.09 848 25.04 3.5 38.3 63 -2.8 26.9
20:05 1019 30.09 848 25.04 3.5 38.3 63 -2.8 26.9
20:10 1019 30.09 848 25.04 3.4 38.2 63 -2.8 26.9
20:15 1019 30.09 848 25.04 3.3 38 64 -2.9 26.8
20:20 1019 30.09 848 25.04 3.3 37.9 64 -2.9 26.7
20:25 1019 30.09 848 25.04 3.4 38 63 -2.9 26.7
20:30 1019 30.09 848 25.04 3.4 38.1 63 -2.9 26.8
20:35 1019 30.09 848 25.04 3.5 38.3 63 -2.8 26.9
20:40 1019 30.09 849 25.07 3.4 38.2 64 -2.8 27
20:45 1019 30.09 849 25.07 3.4 38.2 64 -2.8 27
20:50 1019 30.09 849 25.07 3.4 38.2 64 -2.7 27.1
20:55 1020 30.12 849 25.07 3.2 37.8 65 -2.8 27
21:00 1020 30.12 849 25.07 3 37.4 66 -2.8 26.9
21:05 1020 30.12 849 25.07 2.9 37.2 66 -2.8 27
21:10 1020 30.12 849 25.07 2.8 37 67 -2.8 27
21:15 1020 30.12 849 25.07 2.7 36.9 67 -2.7 27.1
21:20 1020 30.12 849 25.07 2.7 36.8 67 -2.8 27
21:25 1020 30.12 849 25.07 2.8 37 67 -2.8 26.9
21:30 1020 30.12 849 25.07 2.9 37.2 66 -2.9 26.7
21:35 1020 30.12 849 25.07 3.1 37.6 64 -3 26.5
21:40 1020 30.12 849 25.07 3 37.3 65 -2.9 26.7
21:45 1020 30.12 849 25.07 2.8 37.1 66 -3 26.6
21:50 1020 30.12 849 25.07 2.8 37 66 -3 26.6
21:55 1020 30.12 849 25.07 2.8 37.1 65 -3 26.6
22:00 1020 30.12 849 25.07 2.9 37.3 65 -3 26.7
22:05 1020 30.12 849 25.07 2.9 37.2 66 -2.9 26.8
22:10 1020 30.12 849 25.07 2.9 37.2 66 -2.9 26.8
22:15 1020 30.12 849 25.07 2.8 37 66 -2.9 26.8
22:20 1020 30.12 849 25.07 2.6 36.7 67 -2.9 26.8
22:25 1020 30.12 849 25.07 2.6 36.7 67 -2.8 26.9
22:30 1020 30.12 849 25.07 2.6 36.6 67 -2.9 26.8
22:35 1020 30.12 849 25.07 2.6 36.7 67 -2.9 26.9
22:40 1020 30.12 849 25.07 2.6 36.7 67 -2.9 26.8
22:45 1020 30.12 849 25.07 2.6 36.7 67 -2.9 26.8
22:50 1020 30.12 849 25.07 2.6 36.6 66 -3 26.5
22:55 1020 30.12 849 25.07 2.6 36.7 66 -3.1 26.5
23:00 1020 30.12 849 25.07 2.7 36.8 66 -3.1 26.4
23:05 1020 30.12 849 25.07 2.7 36.8 65 -3.2 26.2
23:10 1020 30.12 850 25.1 2.7 36.8 65 -3.2 26.2
23:15 1020 30.12 850 25.1 2.6 36.7 66 -3.2 26.3
23:20 1020 30.12 850 25.1 2.6 36.7 66 -3.2 26.3
23:25 1020 30.12 850 25.1 2.6 36.7 65 -3.2 26.2
23:30 1020 30.12 850 25.1 2.6 36.7 66 -3.1 26.3
23:35 1020 30.12 850 25.1 2.5 36.6 66 -3.2 26.3
23:40 1020 30.12 850 25.1 2.5 36.5 66 -3.2 26.2
23:45 1020 30.12 850 25.1 2.5 36.6 66 -3.2 26.2
23:50 1020 30.12 850 25.1 2.6 36.7 65 -3.4 25.9
23:55 1021 30.15 850 25.1 2.7 36.9 64 -3.4 25.9
24:00 1021 30.15 850 25.1 2.8 37 63 -3.5 25.7